Latest Weather Observations for Braidwood

IDN60801

Issued at 2:42 am EST Tuesday 20 August 2019 (issued every 10 minutes, with the page automatically refreshed every 10 minutes)

About weather observations | Map of weather stations | Latest weather observations for NSW | Other Formats
Station Details ID: 069132 Name: BRAIDWOOD RACECOURSE AWS Lat: -35.43 Lon: 149.78 Height: 665.2 m
Data from the previous 72 hours. | See also: Recent months at Braidwood
Date/Time
EST
Temp
°C
App
Temp
°C
Dew
Point
°C
Rel
Hum
%
Delta-T
°C
Wind Press
QNH
hPa
Press
MSL
hPa
Rain since
9am
mm
Dir  Spd
km/h
Gust
km/h
Spd
kts
Gust
kts
20/02:30am 2.6 -1.4 -1.9 72 1.7 NNW 9 17 5 9 1021.3 1022.1 0.0
20/02:00am 2.0 -1.6 -2.3 73 1.5 NNW 7 11 4 6 1021.4 1022.2 0.0
20/01:30am 2.6 -1.1 -3.1 66 2.0 NNW 7 15 4 8 1021.6 1022.4 0.0
20/01:00am 2.8 -2.4 -2.5 68 1.9 NW 15 24 8 13 1021.3 1022.1 0.0
20/12:30am 3.2 -2.7 -2.1 68 2.0 NW 19 26 10 14 1021.3 1022.1 0.0
20/12:00am 0.7 -2.8 -2.7 78 1.2 N 6 9 3 5 1021.7 1022.5 0.0
 
Date/Time
EST
Temp
°C
App
Temp
°C
Dew
Point
°C
Rel
Hum
%
Delta-T
°C
Wind Press
QNH
hPa
Press
MSL
hPa
Rain since
9am
mm
Dir  Spd
km/h
Gust
km/h
Spd
kts
Gust
kts
19/11:30pm 0.6 -2.6 -3.1 76 1.3 NNW 4 9 2 5 1021.5 1022.3 0.0
19/11:00pm 1.6 -2.0 -3.7 68 1.9 NW 6 13 3 7 1021.7 1022.5 0.0
19/10:30pm 2.4 -2.4 -2.7 69 1.8 NW 13 20 7 11 1021.3 1022.1 0.0
19/10:00pm 2.7 -2.2 -3.2 65 2.1 NW 13 20 7 11 1021.1 1021.9 0.0
19/09:30pm 1.5 -2.2 -2.8 73 1.6 NNE 7 19 4 10 1021.3 1022.1 0.0
19/09:00pm 1.3 -2.3 -3.4 71 1.7 N 6 15 3 8 1021.1 1021.9 0.0
19/08:30pm 2.4 -1.4 -4.1 62 2.3 N 7 13 4 7 1021.0 1021.8 0.0
19/08:00pm 3.7 -2.9 -3.6 59 2.6 WNW 22 30 12 16 1020.4 1021.2 0.0
19/07:30pm 2.7 -3.3 -3.2 65 2.1 WNW 19 24 10 13 1019.9 1020.7 0.0
19/07:00pm 2.9 -3.1 -3.4 63 2.2 WNW 19 22 10 12 1019.7 1020.5 0.0
19/06:30pm 3.9 -1.9 -4.3 55 2.9 WNW 17 22 9 12 1019.3 1020.1 0.0
19/06:00pm 4.5 -1.3 -4.7 51 3.2 WNW 17 24 9 13 1018.7 1019.5 0.0
19/05:30pm 5.5 -0.6 -4.1 50 3.5 NW 19 24 10 13 1018.5 1019.3 0.0
19/05:00pm 6.2 -0.1 -4.3 47 3.8 WNW 20 30 11 16 1018.3 1019.1 0.0
19/04:30pm 6.3 -1.2 -4.4 46 3.9 WNW 26 35 14 19 1017.6 1018.3 0.0
19/04:00pm 7.0 -1.1 -3.5 47 3.9 WNW 30 41 16 22 1016.9 1017.7 0.0
19/03:30pm 7.4 -1.1 -3.4 46 4.1 WNW 32 46 17 25 1016.4 1017.1 0.0
19/03:00pm 7.4 -1.3 -4.7 42 4.4 WNW 32 41 17 22 1015.9 1016.6 0.0
19/02:30pm 8.8 0.1 -3.1 43 4.6 WNW 33 48 18 26 1015.3 1016.0 0.0
19/02:13pm 9.0 0.5 -3.2 42 4.7 WNW 32 50 17 27 1015.1 1015.8 0.0
19/02:00pm 8.0 -0.8 -4.1 42 4.5 WNW 33 46 18 25 1015.1 1015.8 0.0
19/01:30pm 8.1 -0.5 -4.3 41 4.6 W 32 50 17 27 1014.9 1015.6 0.0
19/01:27pm 7.9 -0.8 -4.8 40 4.6 WNW 32 50 17 27 1014.8 1015.5 0.0
19/01:00pm 9.2 1.1 -3.0 42 4.7 WNW 30 44 16 24 1014.9 1015.6 0.0
19/12:30pm 8.9 0.4 -3.3 42 4.7 WNW 32 43 17 23 1014.5 1015.2 0.0
19/12:00pm 8.2 0.0 -3.9 42 4.5 W 30 46 16 25 1014.7 1015.4 0.0
19/11:53am 8.4 0.6 -3.4 43 4.5 W 28 46 15 25 1014.8 1015.5 0.0
19/11:30am 7.8 -0.7 -3.7 44 4.3 W 32 44 17 24 1014.7 1015.4 0.0
19/11:00am 8.1 0.1 -2.5 47 4.1 W 30 46 16 25 1014.5 1015.2 0.0
19/10:30am 7.2 -1.4 -2.5 50 3.7 WNW 33 46 18 25 1014.0 1014.7 0.0
19/10:20am 7.2 -1.1 -2.0 52 3.6 WNW 32 50 17 27 1013.8 1014.5 0.0
19/10:00am 6.6 -2.2 -1.5 56 3.2 WNW 35 50 19 27 1013.8 1014.5 0.0
19/09:48am 5.8 -2.6 -1.3 60 2.8 WNW 33 54 18 29 1013.6 1014.3 0.0
19/09:30am 5.8 -2.3 -0.5 64 2.5 NW 32 46 17 25 1013.6 1014.3 0.0
19/09:06am 5.3 -2.1 -0.5 66 2.3 NW 28 46 15 25 1013.3 1014.0 0.0
19/09:00am 5.2 -2.6 -0.8 65 2.3 NW 30 41 16 22 1013.4 1014.1 0.8
19/08:30am 4.8 -2.1 0.0 71 1.9 NW 26 39 14 21 1013.1 1013.8 0.8
19/08:00am 4.2 -1.6 0.0 74 1.7 NW 20 30 11 16 1012.8 1013.4 0.8
19/07:30am 3.5 -3.1 -0.5 75 1.5 NW 24 39 13 21 1012.3 1013.0 0.8
19/07:00am 3.0 -3.6 -0.5 78 1.3 NW 24 33 13 18 1012.0 1012.7 0.8
19/06:30am 2.9 -3.7 -0.4 79 1.3 NW 24 37 13 20 1011.6 1012.3 0.8
19/06:00am 3.0 -4.3 -0.1 80 1.2 NW 28 41 15 22 1011.1 1011.7 0.8
19/05:31am 3.2 -4.1 -0.1 79 1.3 NW 28 48 15 26 1010.3 1011.0 0.8
19/05:30am 3.0 -4.3 -0.3 79 1.3 NW 28 46 15 25 1010.4 1011.1 0.8
19/05:18am 3.1 -4.2 -0.2 79 1.3 NW 28 46 15 25 1010.2 1010.8 0.8
19/05:00am 3.0 -3.6 -0.3 79 1.3 NW 24 37 13 20 1010.1 1010.7 0.8
19/04:30am 3.4 -3.9 -0.2 77 1.4 NW 28 43 15 23 1009.9 1010.5 0.8
19/04:00am 3.4 -2.8 -0.2 77 1.4 NW 22 35 12 19 1009.7 1010.3 0.8
19/03:30am 3.7 -2.4 0.1 77 1.4 NW 22 37 12 20 1009.8 1010.4 0.8
19/03:00am 3.8 -2.0 0.1 77 1.5 NW 20 32 11 17 1010.0 1010.6 0.8
19/02:30am 4.0 -1.5 0.7 79 1.3 NW 19 28 10 15 1009.9 1010.5 0.8
19/02:00am 4.1 -1.0 1.0 80 1.3 NW 17 32 9 17 1010.1 1010.7 0.8
19/01:30am 4.3 0.1 1.7 83 1.1 NW 13 24 7 13 1010.2 1010.8 0.8
19/01:00am 4.8 -0.1 1.8 81 1.2 NW 17 30 9 16 1010.3 1011.0 0.8
19/12:30am 4.9 0.8 2.3 83 1.1 NW 13 26 7 14 1010.3 1011.0 0.8
19/12:00am 5.2 0.3 2.0 80 1.3 NW 17 26 9 14 1010.2 1010.8 0.8
 
Date/Time
EST
Temp
°C
App
Temp
°C
Dew
Point
°C
Rel
Hum
%
Delta-T
°C
Wind Press
QNH
hPa
Press
MSL
hPa
Rain since
9am
mm
Dir  Spd
km/h
Gust
km/h
Spd
kts
Gust
kts
18/11:30pm 5.5 1.9 2.8 83 1.2 NW 11 20 6 11 1010.4 1011.1 0.8
18/11:00pm 6.0 -0.8 3.0 81 1.3 WNW 28 52 15 28 1010.3 1011.0 0.6
18/10:35pm 6.9 -1.2 3.2 77 1.6 WNW 35 61 19 33 1009.9 1010.5 0.4
18/10:30pm 7.3 -0.7 3.7 78 1.6 WNW 35 48 19 26 1010.1 1010.7 0.2
18/10:11pm 9.6 1.3 2.2 60 3.2 WNW 35 54 19 29 1009.0 1009.7 0.0
18/10:00pm 10.9 1.7 1.4 52 4.2 WNW 39 61 21 33 1008.8 1009.4 0.0
18/09:33pm 14.1 7.1 1.7 43 5.6 NW 28 56 15 30 1007.6 1008.2 0.0
18/09:30pm 14.5 8.2 1.8 42 5.8 NW 24 41 13 22 1007.1 1007.7 0.0
18/09:00pm 15.1 9.7 1.3 39 6.3 NNW 19 41 10 22 1007.0 1007.6 0.0
18/08:30pm 14.1 11.2 4.4 52 4.6 NNW 9 17 5 9 1007.9 1008.5 0.0
18/08:00pm 13.8 11.2 4.4 53 4.5 N 7 15 4 8 1007.1 1007.7 0.0
18/07:30pm 13.1 10.1 0.8 43 5.4 NNE 6 13 3 7 1007.3 1007.9 0.0
18/07:00pm 13.2 10.6 0.9 43 5.4 NNE 4 7 2 4 1007.6 1008.2 0.0
18/06:30pm 13.1 10.5 0.8 43 5.4 N 4 6 2 3 1008.3 1008.9 0.0
18/06:00pm 13.9 11.2 0.5 40 5.9 NNE 4 11 2 6 1008.3 1008.9 0.0
18/05:30pm 14.8 12.0 -0.1 36 6.5 N 4 7 2 4 1009.2 1009.9 0.0
18/05:00pm 16.5 13.2 -0.2 32 7.4 N 7 20 4 11 1009.5 1010.1 0.0
18/04:30pm 17.2 13.7 -1.0 29 8.0 N 7 13 4 7 1009.9 1010.5 0.0
18/04:00pm 17.9 13.6 -1.9 26 8.6 NNW 11 22 6 12 1010.3 1011.0 0.0
18/03:30pm 18.5 13.4 -1.9 25 8.9 NW 15 24 8 13 1010.7 1011.4 0.0
18/03:00pm 19.3 14.6 -1.7 24 9.3 NNW 13 26 7 14 1011.2 1011.8 0.0
18/02:30pm 20.7 15.6 -1.8 22 10.0 NW 15 39 8 21 1011.5 1012.1 0.0
18/02:00pm 19.9 15.3 -1.2 24 9.4 NW 13 22 7 12 1011.9 1012.6 0.0
18/01:30pm 19.0 13.5 -2.0 24 9.2 NW 17 32 9 17 1012.6 1013.2 0.0
18/01:00pm 19.3 13.6 -0.7 26 9.0 NW 19 33 10 18 1013.2 1013.9 0.0
18/12:30pm 18.9 14.8 -0.5 27 8.7 NNW 11 22 6 12 1013.9 1014.6 0.0
18/12:00pm 17.4 12.8 -1.3 28 8.2 NNW 13 22 7 12 1014.8 1015.5 0.0
18/11:30am 16.9 12.4 -0.3 31 7.6 NNW 13 24 7 13 1015.3 1016.0 0.0
18/11:00am 15.1 12.1 4.2 48 5.2 NNW 9 17 5 9 1016.1 1016.8 0.0
18/10:30am 13.2 10.2 4.1 54 4.3 NNW 9 17 5 9 1016.7 1017.5 0.0
18/10:00am 12.0 9.0 4.0 58 3.7 N 9 15 5 8 1017.1 1017.9 0.0
18/09:30am 9.9 7.5 5.3 73 2.2 N 7 15 4 8 1017.2 1018.0 0.0
18/09:00am 7.1 4.9 6.0 93 0.5 NNE 7 17 4 9 1017.6 1018.3 0.0
18/08:30am 5.3 3.7 4.7 96 0.3 SSW 2 6 1 3 1018.0 1018.8 0.0
18/08:00am 4.4 1.9 3.8 96 0.3 NNE 6 11 3 6 1018.2 1019.0 0.0
18/07:40am 3.8 1.6 3.2 96 0.3 NNE 4 6 2 3 1018.4 1019.2 0.0
18/07:30am 3.6 2.1 3.0 96 0.3 CALM 0 2 0 1 1018.4 1019.2 0.0
18/07:00am 2.7 0.3 2.1 96 0.2 NE 4 9 2 5 1018.4 1019.2 0.0
18/06:30am 2.2 0.5 1.6 96 0.2 CALM 0 0 0 0 1018.4 1019.2 0.0
18/06:00am 2.4 0.3 1.8 96 0.2 NW 2 6 1 3 1018.4 1019.2 0.0
18/05:30am 3.3 1.4 2.7 96 0.3 NNW 2 6 1 3 1018.3 1019.1 0.0
18/05:00am 3.7 1.5 3.1 96 0.3 N 4 7 2 4 1018.3 1019.1 0.0
18/04:30am 4.1 2.7 3.5 96 0.3 CALM 0 0 0 0 1018.4 1019.2 0.0
18/04:00am 4.3 2.9 3.7 96 0.3 CALM 0 0 0 0 1018.8 1019.6 0.0
18/03:30am 4.9 3.6 4.3 96 0.3 CALM 0 0 0 0 1019.0 1019.7 0.0
18/03:00am 5.0 3.8 4.4 96 0.3 CALM 0 0 0 0 1019.3 1020.1 0.0
18/02:30am 5.2 4.0 4.6 96 0.3 CALM 0 0 0 0 1019.4 1020.2 0.0
18/02:00am 5.0 3.8 4.4 96 0.3 CALM 0 0 0 0 1019.8 1020.6 0.0
18/01:30am 4.2 2.8 3.6 96 0.3 CALM 0 0 0 0 1020.3 1021.1 0.0
18/01:00am 3.5 1.6 2.9 96 0.3 NW 2 4 1 2 1020.8 1021.6 0.0
18/12:30am 2.3 0.6 1.9 97 0.2 CALM 0 0 0 0 1020.9 1021.7 0.0
18/12:00am 0.6 -1.4 0.0 96 0.2 CALM 0 0 0 0 1020.9 1021.7 0.0
 
Date/Time
EST
Temp
°C
App
Temp
°C
Dew
Point
°C
Rel
Hum
%
Delta-T
°C
Wind Press
QNH
hPa
Press
MSL
hPa
Rain since
9am
mm
Dir  Spd
km/h
Gust
km/h
Spd
kts
Gust
kts
17/11:30pm 0.2 -1.9 -0.5 95 0.3 CALM 0 0 0 0 1021.0 1021.8 0.0
17/11:00pm 1.1 -1.6 0.4 95 0.3 SSW 4 6 2 3 1020.7 1021.5 0.0
17/10:51pm 1.2 -1.5 0.5 95 0.3 S 4 6 2 3 1020.7 1021.5 0.0
17/10:30pm 2.0 0.2 1.3 95 0.3 CALM 0 0 0 0 1020.9 1021.7 0.0
17/10:00pm 2.1 -1.0 1.5 96 0.2 NNW 7 9 4 5 1021.8 1022.7 0.0
17/09:30pm 3.0 0.0 2.3 95 0.3 NNW 7 11 4 6 1021.4 1022.2 0.0
17/09:00pm 2.7 0.6 1.8 94 0.4 NW 2 4 1 2 1021.1 1021.9 0.0
17/08:30pm 2.8 0.7 1.6 92 0.5 SSE 2 4 1 2 1020.8 1021.6 0.0
17/08:00pm 3.6 1.1 1.6 87 0.8 S 4 7 2 4 1020.8 1021.6 0.0
17/07:30pm 5.2 3.0 3.2 87 0.9 SE 4 6 2 3 1021.2 1022.0 0.0
17/07:00pm 6.3 5.0 4.1 86 1.0 CALM 0 0 0 0 1021.1 1021.9 0.0
17/06:30pm 5.9 3.6 2.9 81 1.3 ESE 4 6 2 3 1020.7 1021.5 0.0
17/06:00pm 7.2 4.4 3.1 75 1.8 ESE 7 9 4 5 1020.3 1021.1 0.0
17/05:30pm 8.7 5.1 3.1 68 2.5 E 11 15 6 8 1019.9 1020.7 0.0
17/05:00pm 11.3 7.4 3.3 58 3.6 E 13 17 7 9 1019.6 1020.4 0.0
17/04:30pm 12.7 8.8 3.4 53 4.3 E 13 19 7 10 1019.1 1019.8 0.0
17/04:00pm 13.3 8.6 3.4 51 4.6 E 17 20 9 11 1018.8 1019.6 0.0
17/03:30pm 13.8 9.8 2.7 47 5.1 ESE 13 19 7 10 1018.8 1019.6 0.0
17/03:00pm 14.1 10.3 2.0 44 5.5 ENE 11 19 6 10 1019.0 1019.7 0.0
17/02:30pm 13.9 10.6 2.2 45 5.3 E 9 17 5 9 1019.0 1019.7 0.0
17/02:00pm 14.1 10.3 2.0 44 5.5 E 11 17 6 9 1018.8 1019.6 0.0
17/01:30pm 13.9 11.6 2.8 47 5.1 SSE 4 15 2 8 1019.0 1019.7 0.0
17/01:00pm 14.0 11.7 2.9 47 5.1 S 4 15 2 8 1019.1 1019.8 0.0
17/12:30pm 13.4 10.6 2.9 49 4.8 SSW 7 17 4 9 1019.3 1020.1 0.0
17/12:00pm 12.4 8.3 2.3 50 4.5 SSE 13 19 7 10 1019.8 1020.6 0.0
17/11:30am 11.9 8.1 1.8 50 4.5 SSE 11 20 6 11 1019.9 1020.7 0.0
17/11:00am 11.8 6.6 2.5 53 4.2 S 19 24 10 13 1020.2 1021.0 0.0
17/10:30am 11.0 5.7 2.1 54 3.9 S 19 24 10 13 1020.2 1021.0 0.0
17/10:00am 10.9 6.0 2.0 54 3.9 S 17 24 9 13 1020.1 1020.9 0.0
17/09:30am 10.4 5.0 1.5 54 3.9 S 19 24 10 13 1019.9 1020.7 0.0
17/09:00am 9.4 6.5 1.6 58 3.4 SSE 6 13 3 7 1019.9 1020.7 0.0
17/08:30am 7.9 5.6 0.2 58 3.2 SSE 2 7 1 4 1019.6 1020.4 0.0
17/08:00am 7.4 5.6 1.0 64 2.7 CALM 0 2 0 1 1019.5 1020.3 0.0
17/07:30am 4.6 2.2 -0.2 71 1.9 WNW 2 9 1 5 1019.0 1019.7 0.0
17/07:00am 3.8 0.6 -0.8 72 1.8 ENE 6 11 3 6 1018.7 1019.5 0.0
17/06:30am 4.0 0.5 -1.2 69 2.0 S 7 9 4 5 1017.9 1018.6 0.0
17/06:00am 5.7 2.0 -0.1 66 2.3 SSE 9 17 5 9 1017.4 1018.1 0.0
17/05:30am 4.8 1.8 0.6 74 1.7 WSW 6 9 3 5 1017.0 1017.8 0.0
17/05:00am 5.9 1.5 0.3 67 2.3 SW 13 20 7 11 1016.6 1017.3 0.0
17/04:30am 6.6 2.8 1.7 71 2.1 SW 11 24 6 13 1016.2 1016.9 0.0
17/04:00am 6.1 2.5 0.6 68 2.2 SW 9 17 5 9 1016.2 1016.9 0.0
17/03:30am 5.9 2.0 0.9 70 2.1 SW 11 13 6 7 1016.0 1016.7 0.0
17/03:00am 6.5 3.5 0.6 66 2.4 SW 6 9 3 5 1016.0 1016.7 0.0

Other formats

Comma delimited format used in spreadsheet applications
http://www.bom.gov.au/fwo/IDN60801/IDN60801.94927.axf

JavaScript Object Notation format (JSON) in row-major order
http://www.bom.gov.au/fwo/IDN60801/IDN60801.94927.json

Data quality

Most of these data are generated automatically and are frequently updated. Quality checks on data are not normally performed. It is possible for incorrect values to appear. Refer to information at About Latest Weather Observations and please check the disclaimer before using these data.